sensor_id;sensor_type;location;lat;lon;timestamp;P1;durP1;ratioP1;P2;durP2;ratioP2
3274;SDS011;1649;53.672;10.064;2023-05-25T00:01:39;17.50;;;11.30;;
3274;SDS011;1649;53.672;10.064;2023-05-25T00:04:07;19.53;;;11.00;;
3274;SDS011;1649;53.672;10.064;2023-05-25T00:06:34;22.23;;;12.07;;
3274;SDS011;1649;53.672;10.064;2023-05-25T00:09:01;19.53;;;12.00;;
3274;SDS011;1649;53.672;10.064;2023-05-25T00:11:26;20.23;;;11.27;;
3274;SDS011;1649;53.672;10.064;2023-05-25T00:13:52;27.60;;;12.27;;
3274;SDS011;1649;53.672;10.064;2023-05-25T00:16:18;20.53;;;11.77;;
3274;SDS011;1649;53.672;10.064;2023-05-25T00:18:44;21.00;;;11.53;;
3274;SDS011;1649;53.672;10.064;2023-05-25T00:21:11;19.30;;;11.93;;
3274;SDS011;1649;53.672;10.064;2023-05-25T00:23:38;21.70;;;12.73;;
3274;SDS011;1649;53.672;10.064;2023-05-25T00:26:03;22.90;;;12.73;;
3274;SDS011;1649;53.672;10.064;2023-05-25T00:28:29;20.80;;;12.27;;
3274;SDS011;1649;53.672;10.064;2023-05-25T00:30:54;19.30;;;11.50;;
3274;SDS011;1649;53.672;10.064;2023-05-25T00:33:20;23.83;;;12.63;;
3274;SDS011;1649;53.672;10.064;2023-05-25T00:35:45;25.00;;;12.47;;
3274;SDS011;1649;53.672;10.064;2023-05-25T00:38:12;21.47;;;12.60;;
3274;SDS011;1649;53.672;10.064;2023-05-25T00:40:38;22.03;;;12.70;;
3274;SDS011;1649;53.672;10.064;2023-05-25T00:43:05;22.87;;;11.83;;
3274;SDS011;1649;53.672;10.064;2023-05-25T00:45:33;25.03;;;12.07;;
3274;SDS011;1649;53.672;10.064;2023-05-25T00:47:59;20.00;;;12.27;;
3274;SDS011;1649;53.672;10.064;2023-05-25T00:50:41;21.17;;;11.67;;
3274;SDS011;1649;53.672;10.064;2023-05-25T00:53:09;22.50;;;11.93;;
3274;SDS011;1649;53.672;10.064;2023-05-25T00:58:47;19.90;;;11.00;;
3274;SDS011;1649;53.672;10.064;2023-05-25T01:01:18;22.03;;;12.20;;
3274;SDS011;1649;53.672;10.064;2023-05-25T01:03:47;23.20;;;11.90;;
3274;SDS011;1649;53.672;10.064;2023-05-25T01:06:17;19.53;;;11.07;;
3274;SDS011;1649;53.672;10.064;2023-05-25T01:08:46;24.80;;;11.10;;
3274;SDS011;1649;53.672;10.064;2023-05-25T01:11:15;19.97;;;10.70;;
3274;SDS011;1649;53.672;10.064;2023-05-25T01:13:47;23.50;;;10.87;;
3274;SDS011;1649;53.672;10.064;2023-05-25T01:16:16;19.13;;;11.70;;
3274;SDS011;1649;53.672;10.064;2023-05-25T01:18:42;23.57;;;11.73;;
3274;SDS011;1649;53.672;10.064;2023-05-25T01:21:13;20.67;;;11.13;;
3274;SDS011;1649;53.672;10.064;2023-05-25T01:23:58;20.87;;;12.00;;
3274;SDS011;1649;53.672;10.064;2023-05-25T01:26:33;18.43;;;10.30;;
3274;SDS011;1649;53.672;10.064;2023-05-25T01:29:03;24.20;;;12.37;;
3274;SDS011;1649;53.672;10.064;2023-05-25T01:31:29;26.47;;;12.40;;
3274;SDS011;1649;53.672;10.064;2023-05-25T01:33:57;23.47;;;10.70;;
3274;SDS011;1649;53.672;10.064;2023-05-25T01:36:23;26.40;;;11.77;;
3274;SDS011;1649;53.672;10.064;2023-05-25T01:38:49;20.40;;;12.30;;
3274;SDS011;1649;53.672;10.064;2023-05-25T01:41:15;27.63;;;12.33;;
3274;SDS011;1649;53.672;10.064;2023-05-25T01:43:40;20.50;;;12.50;;
3274;SDS011;1649;53.672;10.064;2023-05-25T01:46:11;26.47;;;13.17;;
3274;SDS011;1649;53.672;10.064;2023-05-25T01:48:53;25.40;;;13.80;;
3274;SDS011;1649;53.672;10.064;2023-05-25T01:51:43;25.37;;;12.60;;
3274;SDS011;1649;53.672;10.064;2023-05-25T01:54:13;25.73;;;12.13;;
3274;SDS011;1649;53.672;10.064;2023-05-25T01:56:45;20.40;;;12.27;;
3274;SDS011;1649;53.672;10.064;2023-05-25T01:59:12;25.70;;;13.27;;
3274;SDS011;1649;53.672;10.064;2023-05-25T02:01:40;18.30;;;13.07;;
3274;SDS011;1649;53.672;10.064;2023-05-25T02:04:06;24.00;;;13.00;;
3274;SDS011;1649;53.672;10.064;2023-05-25T02:06:34;25.20;;;14.30;;
3274;SDS011;1649;53.672;10.064;2023-05-25T02:09:00;30.03;;;13.77;;
3274;SDS011;1649;53.672;10.064;2023-05-25T02:11:26;23.57;;;13.43;;
3274;SDS011;1649;53.672;10.064;2023-05-25T02:13:51;23.27;;;13.07;;
3274;SDS011;1649;53.672;10.064;2023-05-25T02:16:17;26.23;;;13.53;;
3274;SDS011;1649;53.672;10.064;2023-05-25T02:18:42;26.67;;;14.67;;
3274;SDS011;1649;53.672;10.064;2023-05-25T02:21:08;23.97;;;13.93;;
3274;SDS011;1649;53.672;10.064;2023-05-25T02:23:34;25.50;;;13.77;;
3274;SDS011;1649;53.672;10.064;2023-05-25T02:26:00;25.10;;;13.53;;
3274;SDS011;1649;53.672;10.064;2023-05-25T02:28:25;24.70;;;15.27;;
3274;SDS011;1649;53.672;10.064;2023-05-25T02:30:51;24.77;;;15.00;;
3274;SDS011;1649;53.672;10.064;2023-05-25T02:33:16;25.27;;;13.60;;
3274;SDS011;1649;53.672;10.064;2023-05-25T02:35:43;22.50;;;14.00;;
3274;SDS011;1649;53.672;10.064;2023-05-25T02:38:08;30.17;;;14.07;;
3274;SDS011;1649;53.672;10.064;2023-05-25T02:40:34;23.83;;;12.10;;
3274;SDS011;1649;53.672;10.064;2023-05-25T02:42:59;24.60;;;14.83;;
3274;SDS011;1649;53.672;10.064;2023-05-25T02:45:25;25.50;;;13.50;;
3274;SDS011;1649;53.672;10.064;2023-05-25T02:47:50;22.00;;;13.80;;
3274;SDS011;1649;53.672;10.064;2023-05-25T02:50:16;25.67;;;13.73;;
3274;SDS011;1649;53.672;10.064;2023-05-25T02:52:41;27.60;;;13.77;;
3274;SDS011;1649;53.672;10.064;2023-05-25T02:55:07;26.17;;;13.73;;
3274;SDS011;1649;53.672;10.064;2023-05-25T02:57:37;26.20;;;13.40;;
3274;SDS011;1649;53.672;10.064;2023-05-25T03:00:02;25.47;;;12.90;;
3274;SDS011;1649;53.672;10.064;2023-05-25T03:02:30;23.87;;;13.87;;
3274;SDS011;1649;53.672;10.064;2023-05-25T03:04:56;27.90;;;14.80;;
3274;SDS011;1649;53.672;10.064;2023-05-25T03:07:22;25.27;;;14.57;;
3274;SDS011;1649;53.672;10.064;2023-05-25T03:09:50;30.10;;;14.80;;
3274;SDS011;1649;53.672;10.064;2023-05-25T03:12:16;27.73;;;14.80;;
3274;SDS011;1649;53.672;10.064;2023-05-25T03:14:42;33.70;;;15.30;;
3274;SDS011;1649;53.672;10.064;2023-05-25T03:17:07;25.93;;;14.70;;
3274;SDS011;1649;53.672;10.064;2023-05-25T03:19:33;22.73;;;15.50;;
3274;SDS011;1649;53.672;10.064;2023-05-25T03:21:58;25.63;;;14.50;;
3274;SDS011;1649;53.672;10.064;2023-05-25T03:24:24;26.40;;;14.60;;
3274;SDS011;1649;53.672;10.064;2023-05-25T03:26:50;28.23;;;15.00;;
3274;SDS011;1649;53.672;10.064;2023-05-25T03:29:16;29.90;;;14.47;;
3274;SDS011;1649;53.672;10.064;2023-05-25T03:31:41;23.93;;;12.50;;
3274;SDS011;1649;53.672;10.064;2023-05-25T03:34:07;25.97;;;14.77;;
3274;SDS011;1649;53.672;10.064;2023-05-25T03:36:32;26.03;;;14.40;;
3274;SDS011;1649;53.672;10.064;2023-05-25T03:38:58;25.30;;;13.30;;
3274;SDS011;1649;53.672;10.064;2023-05-25T03:41:24;27.87;;;13.00;;
3274;SDS011;1649;53.672;10.064;2023-05-25T03:43:49;27.87;;;13.53;;
3274;SDS011;1649;53.672;10.064;2023-05-25T03:46:14;24.10;;;12.20;;
3274;SDS011;1649;53.672;10.064;2023-05-25T03:48:40;24.60;;;11.97;;
3274;SDS011;1649;53.672;10.064;2023-05-25T03:51:05;22.80;;;12.57;;
3274;SDS011;1649;53.672;10.064;2023-05-25T03:53:31;25.53;;;11.77;;
3274;SDS011;1649;53.672;10.064;2023-05-25T03:55:57;22.43;;;12.17;;
3274;SDS011;1649;53.672;10.064;2023-05-25T03:58:23;22.00;;;11.67;;
3274;SDS011;1649;53.672;10.064;2023-05-25T04:00:48;23.20;;;11.93;;
3274;SDS011;1649;53.672;10.064;2023-05-25T04:03:14;20.50;;;10.87;;
3274;SDS011;1649;53.672;10.064;2023-05-25T04:05:40;26.93;;;12.83;;
3274;SDS011;1649;53.672;10.064;2023-05-25T04:08:06;24.10;;;13.00;;
3274;SDS011;1649;53.672;10.064;2023-05-25T04:10:32;19.50;;;11.97;;
3274;SDS011;1649;53.672;10.064;2023-05-25T04:12:58;23.40;;;11.03;;
3274;SDS011;1649;53.672;10.064;2023-05-25T04:15:23;27.13;;;11.97;;
3274;SDS011;1649;53.672;10.064;2023-05-25T04:17:49;20.97;;;10.63;;
3274;SDS011;1649;53.672;10.064;2023-05-25T04:20:15;27.03;;;10.80;;
3274;SDS011;1649;53.672;10.064;2023-05-25T04:22:40;19.57;;;10.23;;
3274;SDS011;1649;53.672;10.064;2023-05-25T04:25:07;22.67;;;10.07;;
3274;SDS011;1649;53.672;10.064;2023-05-25T04:27:34;21.70;;;10.10;;
3274;SDS011;1649;53.672;10.064;2023-05-25T04:30:00;20.60;;;10.60;;
3274;SDS011;1649;53.672;10.064;2023-05-25T04:32:26;20.93;;;10.87;;
3274;SDS011;1649;53.672;10.064;2023-05-25T04:34:53;21.87;;;11.10;;
3274;SDS011;1649;53.672;10.064;2023-05-25T04:37:20;23.00;;;9.50;;
3274;SDS011;1649;53.672;10.064;2023-05-25T04:39:47;20.80;;;9.97;;
3274;SDS011;1649;53.672;10.064;2023-05-25T04:42:12;22.20;;;9.83;;
3274;SDS011;1649;53.672;10.064;2023-05-25T04:44:38;20.27;;;10.23;;
3274;SDS011;1649;53.672;10.064;2023-05-25T04:47:04;21.37;;;10.03;;
3274;SDS011;1649;53.672;10.064;2023-05-25T04:49:31;20.77;;;9.70;;
3274;SDS011;1649;53.672;10.064;2023-05-25T04:51:56;20.80;;;9.40;;
3274;SDS011;1649;53.672;10.064;2023-05-25T04:54:22;18.33;;;9.20;;
3274;SDS011;1649;53.672;10.064;2023-05-25T04:56:48;24.00;;;9.93;;
3274;SDS011;1649;53.672;10.064;2023-05-25T04:59:13;17.83;;;9.27;;
3274;SDS011;1649;53.672;10.064;2023-05-25T05:01:39;15.73;;;8.47;;
3274;SDS011;1649;53.672;10.064;2023-05-25T05:04:06;18.53;;;8.90;;
3274;SDS011;1649;53.672;10.064;2023-05-25T05:06:32;20.13;;;8.80;;
3274;SDS011;1649;53.672;10.064;2023-05-25T05:08:58;17.80;;;8.60;;
3274;SDS011;1649;53.672;10.064;2023-05-25T05:11:25;17.83;;;7.73;;
3274;SDS011;1649;53.672;10.064;2023-05-25T05:13:51;15.30;;;7.70;;
3274;SDS011;1649;53.672;10.064;2023-05-25T05:16:17;25.03;;;8.60;;
3274;SDS011;1649;53.672;10.064;2023-05-25T05:18:43;18.07;;;8.10;;
3274;SDS011;1649;53.672;10.064;2023-05-25T05:21:08;17.80;;;7.43;;
3274;SDS011;1649;53.672;10.064;2023-05-25T05:23:34;18.87;;;8.37;;
3274;SDS011;1649;53.672;10.064;2023-05-25T05:26:00;20.13;;;7.37;;
3274;SDS011;1649;53.672;10.064;2023-05-25T05:28:25;21.27;;;8.37;;
3274;SDS011;1649;53.672;10.064;2023-05-25T05:30:52;18.57;;;7.90;;
3274;SDS011;1649;53.672;10.064;2023-05-25T05:33:18;16.60;;;7.63;;
3274;SDS011;1649;53.672;10.064;2023-05-25T05:35:43;15.30;;;7.13;;
3274;SDS011;1649;53.672;10.064;2023-05-25T05:38:09;21.87;;;8.13;;
3274;SDS011;1649;53.672;10.064;2023-05-25T05:40:34;16.97;;;7.90;;
3274;SDS011;1649;53.672;10.064;2023-05-25T05:43:00;14.77;;;6.80;;
3274;SDS011;1649;53.672;10.064;2023-05-25T05:45:26;14.97;;;6.90;;
3274;SDS011;1649;53.672;10.064;2023-05-25T05:47:51;18.23;;;7.00;;
3274;SDS011;1649;53.672;10.064;2023-05-25T05:50:16;18.20;;;7.17;;
3274;SDS011;1649;53.672;10.064;2023-05-25T05:52:42;22.80;;;7.30;;
3274;SDS011;1649;53.672;10.064;2023-05-25T05:55:08;17.30;;;6.57;;
3274;SDS011;1649;53.672;10.064;2023-05-25T05:57:33;19.30;;;7.37;;
3274;SDS011;1649;53.672;10.064;2023-05-25T05:59:59;17.40;;;6.50;;
3274;SDS011;1649;53.672;10.064;2023-05-25T06:02:24;16.43;;;6.27;;
3274;SDS011;1649;53.672;10.064;2023-05-25T06:04:50;20.30;;;6.80;;
3274;SDS011;1649;53.672;10.064;2023-05-25T06:07:15;18.03;;;7.03;;
3274;SDS011;1649;53.672;10.064;2023-05-25T06:09:41;23.37;;;6.13;;
3274;SDS011;1649;53.672;10.064;2023-05-25T06:12:06;17.07;;;7.10;;
3274;SDS011;1649;53.672;10.064;2023-05-25T06:14:32;16.93;;;6.47;;
3274;SDS011;1649;53.672;10.064;2023-05-25T06:16:58;18.40;;;6.03;;
3274;SDS011;1649;53.672;10.064;2023-05-25T06:19:23;17.37;;;6.80;;
3274;SDS011;1649;53.672;10.064;2023-05-25T06:21:49;20.00;;;6.20;;
3274;SDS011;1649;53.672;10.064;2023-05-25T06:24:15;15.60;;;5.53;;
3274;SDS011;1649;53.672;10.064;2023-05-25T06:26:40;18.07;;;5.90;;
3274;SDS011;1649;53.672;10.064;2023-05-25T06:29:06;21.80;;;6.10;;
3274;SDS011;1649;53.672;10.064;2023-05-25T06:31:31;18.37;;;6.27;;
3274;SDS011;1649;53.672;10.064;2023-05-25T06:33:56;19.40;;;5.60;;
3274;SDS011;1649;53.672;10.064;2023-05-25T06:36:22;14.47;;;5.33;;
3274;SDS011;1649;53.672;10.064;2023-05-25T06:38:47;15.23;;;5.17;;
3274;SDS011;1649;53.672;10.064;2023-05-25T06:41:13;18.30;;;4.93;;
3274;SDS011;1649;53.672;10.064;2023-05-25T06:43:39;18.40;;;5.77;;
3274;SDS011;1649;53.672;10.064;2023-05-25T06:46:06;17.53;;;5.47;;
3274;SDS011;1649;53.672;10.064;2023-05-25T06:48:34;17.13;;;5.30;;
3274;SDS011;1649;53.672;10.064;2023-05-25T06:50:59;17.33;;;5.30;;
3274;SDS011;1649;53.672;10.064;2023-05-25T06:53:25;18.93;;;5.50;;
3274;SDS011;1649;53.672;10.064;2023-05-25T06:55:50;16.03;;;5.43;;
3274;SDS011;1649;53.672;10.064;2023-05-25T06:58:16;24.87;;;6.00;;
3274;SDS011;1649;53.672;10.064;2023-05-25T07:00:42;15.70;;;5.20;;
3274;SDS011;1649;53.672;10.064;2023-05-25T07:03:07;18.20;;;4.60;;
3274;SDS011;1649;53.672;10.064;2023-05-25T07:05:33;18.00;;;5.30;;
3274;SDS011;1649;53.672;10.064;2023-05-25T07:07:58;16.33;;;4.90;;
3274;SDS011;1649;53.672;10.064;2023-05-25T07:10:24;23.20;;;5.37;;
3274;SDS011;1649;53.672;10.064;2023-05-25T07:12:49;11.70;;;4.57;;
3274;SDS011;1649;53.672;10.064;2023-05-25T07:15:15;18.93;;;4.87;;
3274;SDS011;1649;53.672;10.064;2023-05-25T07:17:40;14.50;;;4.20;;
3274;SDS011;1649;53.672;10.064;2023-05-25T07:20:06;16.27;;;4.47;;
3274;SDS011;1649;53.672;10.064;2023-05-25T07:22:32;15.17;;;4.10;;
3274;SDS011;1649;53.672;10.064;2023-05-25T07:24:58;12.70;;;4.40;;
3274;SDS011;1649;53.672;10.064;2023-05-25T07:27:23;13.23;;;4.40;;
3274;SDS011;1649;53.672;10.064;2023-05-25T07:29:49;13.10;;;4.70;;
3274;SDS011;1649;53.672;10.064;2023-05-25T07:32:15;15.77;;;4.87;;
3274;SDS011;1649;53.672;10.064;2023-05-25T07:34:40;16.27;;;5.07;;
3274;SDS011;1649;53.672;10.064;2023-05-25T07:37:06;10.30;;;3.57;;
3274;SDS011;1649;53.672;10.064;2023-05-25T07:39:31;12.40;;;4.07;;
3274;SDS011;1649;53.672;10.064;2023-05-25T07:41:57;12.13;;;3.87;;
3274;SDS011;1649;53.672;10.064;2023-05-25T07:44:22;11.90;;;4.23;;
3274;SDS011;1649;53.672;10.064;2023-05-25T07:46:47;17.57;;;4.70;;
3274;SDS011;1649;53.672;10.064;2023-05-25T07:49:13;12.43;;;4.00;;
3274;SDS011;1649;53.672;10.064;2023-05-25T07:51:43;13.23;;;4.33;;
3274;SDS011;1649;53.672;10.064;2023-05-25T07:54:09;13.43;;;4.27;;
3274;SDS011;1649;53.672;10.064;2023-05-25T07:56:35;16.03;;;4.50;;
3274;SDS011;1649;53.672;10.064;2023-05-25T07:59:01;13.87;;;4.10;;
3274;SDS011;1649;53.672;10.064;2023-05-25T08:01:27;11.17;;;4.07;;
3274;SDS011;1649;53.672;10.064;2023-05-25T08:03:52;12.33;;;3.77;;
3274;SDS011;1649;53.672;10.064;2023-05-25T08:06:18;16.00;;;4.00;;
3274;SDS011;1649;53.672;10.064;2023-05-25T08:08:43;13.00;;;4.90;;
3274;SDS011;1649;53.672;10.064;2023-05-25T08:11:09;13.07;;;4.33;;
3274;SDS011;1649;53.672;10.064;2023-05-25T08:13:35;15.60;;;4.13;;
3274;SDS011;1649;53.672;10.064;2023-05-25T08:16:01;12.97;;;3.97;;
3274;SDS011;1649;53.672;10.064;2023-05-25T08:18:26;14.80;;;3.90;;
3274;SDS011;1649;53.672;10.064;2023-05-25T08:20:52;15.00;;;4.20;;
3274;SDS011;1649;53.672;10.064;2023-05-25T08:23:17;12.43;;;4.67;;
3274;SDS011;1649;53.672;10.064;2023-05-25T08:25:43;16.77;;;4.53;;
3274;SDS011;1649;53.672;10.064;2023-05-25T08:28:08;13.07;;;4.30;;
3274;SDS011;1649;53.672;10.064;2023-05-25T08:30:35;11.77;;;4.33;;
3274;SDS011;1649;53.672;10.064;2023-05-25T08:33:00;13.50;;;4.87;;
3274;SDS011;1649;53.672;10.064;2023-05-25T08:35:26;11.97;;;4.30;;
3274;SDS011;1649;53.672;10.064;2023-05-25T08:37:51;13.73;;;4.07;;
3274;SDS011;1649;53.672;10.064;2023-05-25T08:40:17;14.43;;;4.33;;
3274;SDS011;1649;53.672;10.064;2023-05-25T08:42:46;13.10;;;3.90;;
3274;SDS011;1649;53.672;10.064;2023-05-25T08:45:11;12.57;;;4.00;;
3274;SDS011;1649;53.672;10.064;2023-05-25T08:47:41;12.43;;;4.23;;
3274;SDS011;1649;53.672;10.064;2023-05-25T08:50:10;13.73;;;4.00;;
3274;SDS011;1649;53.672;10.064;2023-05-25T08:52:37;12.70;;;4.20;;
3274;SDS011;1649;53.672;10.064;2023-05-25T08:55:04;11.90;;;4.10;;
3274;SDS011;1649;53.672;10.064;2023-05-25T09:00:19;9.23;;;3.33;;
3274;SDS011;1649;53.672;10.064;2023-05-25T09:02:53;15.57;;;4.50;;
3274;SDS011;1649;53.672;10.064;2023-05-25T09:05:35;16.10;;;4.70;;
3274;SDS011;1649;53.672;10.064;2023-05-25T09:08:03;12.33;;;4.03;;
3274;SDS011;1649;53.672;10.064;2023-05-25T09:10:31;13.13;;;4.57;;
3274;SDS011;1649;53.672;10.064;2023-05-25T09:12:58;12.33;;;4.00;;
3274;SDS011;1649;53.672;10.064;2023-05-25T09:15:25;12.83;;;4.10;;
3274;SDS011;1649;53.672;10.064;2023-05-25T09:17:51;15.13;;;4.70;;
3274;SDS011;1649;53.672;10.064;2023-05-25T09:20:16;13.03;;;4.80;;
3274;SDS011;1649;53.672;10.064;2023-05-25T09:22:43;15.17;;;5.00;;
3274;SDS011;1649;53.672;10.064;2023-05-25T09:25:09;16.57;;;5.00;;
3274;SDS011;1649;53.672;10.064;2023-05-25T09:27:35;10.73;;;4.37;;
3274;SDS011;1649;53.672;10.064;2023-05-25T09:30:02;16.07;;;4.70;;
3274;SDS011;1649;53.672;10.064;2023-05-25T09:32:28;12.20;;;3.70;;
3274;SDS011;1649;53.672;10.064;2023-05-25T09:34:54;11.10;;;4.10;;
3274;SDS011;1649;53.672;10.064;2023-05-25T09:37:21;11.37;;;4.10;;
3274;SDS011;1649;53.672;10.064;2023-05-25T09:39:49;16.53;;;4.33;;
3274;SDS011;1649;53.672;10.064;2023-05-25T09:42:15;15.57;;;4.63;;
3274;SDS011;1649;53.672;10.064;2023-05-25T09:44:42;14.90;;;4.73;;
3274;SDS011;1649;53.672;10.064;2023-05-25T09:47:09;10.40;;;3.63;;
3274;SDS011;1649;53.672;10.064;2023-05-25T09:49:35;11.47;;;4.13;;
3274;SDS011;1649;53.672;10.064;2023-05-25T09:52:00;14.87;;;4.20;;
3274;SDS011;1649;53.672;10.064;2023-05-25T09:54:26;17.57;;;4.83;;
3274;SDS011;1649;53.672;10.064;2023-05-25T09:56:52;14.10;;;4.50;;
3274;SDS011;1649;53.672;10.064;2023-05-25T09:59:17;15.90;;;4.50;;
3274;SDS011;1649;53.672;10.064;2023-05-25T10:01:43;15.10;;;4.80;;
3274;SDS011;1649;53.672;10.064;2023-05-25T10:04:09;13.87;;;4.57;;
3274;SDS011;1649;53.672;10.064;2023-05-25T10:06:34;12.90;;;3.87;;
3274;SDS011;1649;53.672;10.064;2023-05-25T10:09:02;14.00;;;4.30;;
3274;SDS011;1649;53.672;10.064;2023-05-25T10:11:30;12.10;;;4.50;;
3274;SDS011;1649;53.672;10.064;2023-05-25T10:14:00;15.27;;;4.23;;
3274;SDS011;1649;53.672;10.064;2023-05-25T10:16:30;12.40;;;4.40;;
3274;SDS011;1649;53.672;10.064;2023-05-25T10:19:00;12.47;;;4.20;;
3274;SDS011;1649;53.672;10.064;2023-05-25T10:21:32;16.17;;;3.90;;
3274;SDS011;1649;53.672;10.064;2023-05-25T10:24:05;14.90;;;4.80;;
3274;SDS011;1649;53.672;10.064;2023-05-25T10:26:46;14.37;;;4.70;;
3274;SDS011;1649;53.672;10.064;2023-05-25T10:29:17;18.27;;;4.77;;
3274;SDS011;1649;53.672;10.064;2023-05-25T10:31:44;16.50;;;4.43;;
3274;SDS011;1649;53.672;10.064;2023-05-25T10:34:11;12.73;;;4.73;;
3274;SDS011;1649;53.672;10.064;2023-05-25T10:36:38;13.17;;;4.23;;
3274;SDS011;1649;53.672;10.064;2023-05-25T10:39:04;13.70;;;4.53;;
3274;SDS011;1649;53.672;10.064;2023-05-25T10:41:32;14.47;;;4.50;;
3274;SDS011;1649;53.672;10.064;2023-05-25T10:43:57;11.60;;;4.40;;
3274;SDS011;1649;53.672;10.064;2023-05-25T10:46:24;13.93;;;4.63;;
3274;SDS011;1649;53.672;10.064;2023-05-25T10:48:50;22.10;;;5.03;;
3274;SDS011;1649;53.672;10.064;2023-05-25T10:51:19;13.13;;;4.27;;
3274;SDS011;1649;53.672;10.064;2023-05-25T10:53:46;17.73;;;5.00;;
3274;SDS011;1649;53.672;10.064;2023-05-25T10:56:22;16.80;;;4.73;;
3274;SDS011;1649;53.672;10.064;2023-05-25T10:58:47;14.40;;;4.40;;
3274;SDS011;1649;53.672;10.064;2023-05-25T11:01:13;16.23;;;4.30;;
3274;SDS011;1649;53.672;10.064;2023-05-25T11:06:08;13.90;;;4.40;;
3274;SDS011;1649;53.672;10.064;2023-05-25T11:08:52;13.47;;;4.67;;
3274;SDS011;1649;53.672;10.064;2023-05-25T11:11:19;14.33;;;4.30;;
3274;SDS011;1649;53.672;10.064;2023-05-25T11:13:46;14.63;;;4.40;;
3274;SDS011;1649;53.672;10.064;2023-05-25T11:18:59;16.07;;;5.10;;
3274;SDS011;1649;53.672;10.064;2023-05-25T11:23:58;14.43;;;4.73;;
3274;SDS011;1649;53.672;10.064;2023-05-25T11:26:27;14.27;;;4.93;;
3274;SDS011;1649;53.672;10.064;2023-05-25T11:28:54;15.40;;;4.10;;
3274;SDS011;1649;53.672;10.064;2023-05-25T11:31:21;15.50;;;4.80;;
3274;SDS011;1649;53.672;10.064;2023-05-25T11:33:53;14.60;;;4.60;;
3274;SDS011;1649;53.672;10.064;2023-05-25T11:36:21;17.77;;;4.83;;
3274;SDS011;1649;53.672;10.064;2023-05-25T11:38:47;15.30;;;4.80;;
3274;SDS011;1649;53.672;10.064;2023-05-25T11:41:20;15.83;;;4.90;;
3274;SDS011;1649;53.672;10.064;2023-05-25T11:43:49;18.10;;;5.27;;
3274;SDS011;1649;53.672;10.064;2023-05-25T11:46:15;13.27;;;5.03;;
3274;SDS011;1649;53.672;10.064;2023-05-25T11:48:48;16.10;;;5.20;;
3274;SDS011;1649;53.672;10.064;2023-05-25T11:51:19;11.57;;;4.40;;
3274;SDS011;1649;53.672;10.064;2023-05-25T11:53:46;11.53;;;4.00;;
3274;SDS011;1649;53.672;10.064;2023-05-25T11:56:12;15.63;;;4.87;;
3274;SDS011;1649;53.672;10.064;2023-05-25T11:58:38;16.53;;;4.47;;
3274;SDS011;1649;53.672;10.064;2023-05-25T12:01:11;16.17;;;4.80;;
3274;SDS011;1649;53.672;10.064;2023-05-25T12:03:42;15.47;;;4.90;;
3274;SDS011;1649;53.672;10.064;2023-05-25T12:06:08;15.67;;;4.80;;
3274;SDS011;1649;53.672;10.064;2023-05-25T12:08:54;15.23;;;4.43;;
3274;SDS011;1649;53.672;10.064;2023-05-25T12:11:33;18.40;;;5.07;;
3274;SDS011;1649;53.672;10.064;2023-05-25T12:14:02;17.83;;;5.10;;
3274;SDS011;1649;53.672;10.064;2023-05-25T12:16:29;17.33;;;4.80;;
3274;SDS011;1649;53.672;10.064;2023-05-25T12:18:55;15.87;;;4.83;;
3274;SDS011;1649;53.672;10.064;2023-05-25T12:21:21;17.60;;;4.70;;
3274;SDS011;1649;53.672;10.064;2023-05-25T12:23:48;12.70;;;3.70;;
3274;SDS011;1649;53.672;10.064;2023-05-25T12:26:15;17.70;;;5.53;;
3274;SDS011;1649;53.672;10.064;2023-05-25T12:28:57;14.50;;;4.70;;
3274;SDS011;1649;53.672;10.064;2023-05-25T12:31:28;16.50;;;4.87;;
3274;SDS011;1649;53.672;10.064;2023-05-25T12:36:47;17.40;;;4.90;;
3274;SDS011;1649;53.672;10.064;2023-05-25T12:39:16;18.63;;;4.97;;
3274;SDS011;1649;53.672;10.064;2023-05-25T12:44:31;14.60;;;4.73;;
3274;SDS011;1649;53.672;10.064;2023-05-25T12:50:08;15.63;;;4.27;;
3274;SDS011;1649;53.672;10.064;2023-05-25T12:52:35;13.60;;;4.80;;
3274;SDS011;1649;53.672;10.064;2023-05-25T12:58:06;18.33;;;5.10;;
3274;SDS011;1649;53.672;10.064;2023-05-25T13:00:33;21.80;;;5.00;;
3274;SDS011;1649;53.672;10.064;2023-05-25T13:02:58;18.80;;;5.33;;
3274;SDS011;1649;53.672;10.064;2023-05-25T13:05:25;15.37;;;5.10;;
3274;SDS011;1649;53.672;10.064;2023-05-25T13:07:52;17.50;;;5.43;;
3274;SDS011;1649;53.672;10.064;2023-05-25T13:10:19;20.27;;;5.30;;
3274;SDS011;1649;53.672;10.064;2023-05-25T13:12:45;16.57;;;5.40;;
3274;SDS011;1649;53.672;10.064;2023-05-25T13:15:12;18.67;;;5.27;;
3274;SDS011;1649;53.672;10.064;2023-05-25T13:17:41;16.20;;;4.63;;
3274;SDS011;1649;53.672;10.064;2023-05-25T13:20:10;13.13;;;4.47;;
3274;SDS011;1649;53.672;10.064;2023-05-25T13:22:37;20.43;;;5.57;;
3274;SDS011;1649;53.672;10.064;2023-05-25T13:25:02;16.33;;;4.93;;
3274;SDS011;1649;53.672;10.064;2023-05-25T13:27:28;21.80;;;4.90;;
3274;SDS011;1649;53.672;10.064;2023-05-25T13:29:54;16.80;;;5.67;;
3274;SDS011;1649;53.672;10.064;2023-05-25T13:32:19;15.10;;;4.30;;
3274;SDS011;1649;53.672;10.064;2023-05-25T13:34:45;15.90;;;4.70;;
3274;SDS011;1649;53.672;10.064;2023-05-25T13:37:11;18.07;;;5.10;;
3274;SDS011;1649;53.672;10.064;2023-05-25T13:39:36;17.17;;;4.70;;
3274;SDS011;1649;53.672;10.064;2023-05-25T13:42:02;16.70;;;5.20;;
3274;SDS011;1649;53.672;10.064;2023-05-25T13:44:27;17.63;;;4.97;;
3274;SDS011;1649;53.672;10.064;2023-05-25T13:46:53;15.23;;;4.33;;
3274;SDS011;1649;53.672;10.064;2023-05-25T13:49:19;16.40;;;5.07;;
3274;SDS011;1649;53.672;10.064;2023-05-25T13:51:44;19.80;;;5.40;;
3274;SDS011;1649;53.672;10.064;2023-05-25T13:54:10;20.07;;;4.63;;
3274;SDS011;1649;53.672;10.064;2023-05-25T13:56:36;20.27;;;4.87;;
3274;SDS011;1649;53.672;10.064;2023-05-25T13:59:02;17.90;;;5.47;;
3274;SDS011;1649;53.672;10.064;2023-05-25T14:01:28;13.37;;;4.60;;
3274;SDS011;1649;53.672;10.064;2023-05-25T14:03:54;17.53;;;4.60;;
3274;SDS011;1649;53.672;10.064;2023-05-25T14:06:20;19.73;;;5.10;;
3274;SDS011;1649;53.672;10.064;2023-05-25T14:08:45;16.20;;;4.57;;
3274;SDS011;1649;53.672;10.064;2023-05-25T14:11:11;16.30;;;4.93;;
3274;SDS011;1649;53.672;10.064;2023-05-25T14:13:36;16.30;;;5.37;;
3274;SDS011;1649;53.672;10.064;2023-05-25T14:16:02;17.30;;;4.33;;
3274;SDS011;1649;53.672;10.064;2023-05-25T14:18:28;17.63;;;5.50;;
3274;SDS011;1649;53.672;10.064;2023-05-25T14:20:53;16.13;;;4.83;;
3274;SDS011;1649;53.672;10.064;2023-05-25T14:23:19;17.90;;;4.87;;
3274;SDS011;1649;53.672;10.064;2023-05-25T14:25:45;16.17;;;5.20;;
3274;SDS011;1649;53.672;10.064;2023-05-25T14:28:12;17.03;;;4.80;;
3274;SDS011;1649;53.672;10.064;2023-05-25T14:30:38;19.47;;;5.13;;
3274;SDS011;1649;53.672;10.064;2023-05-25T14:33:03;17.87;;;5.30;;
3274;SDS011;1649;53.672;10.064;2023-05-25T14:35:29;15.30;;;4.50;;
3274;SDS011;1649;53.672;10.064;2023-05-25T14:37:54;16.80;;;5.40;;
3274;SDS011;1649;53.672;10.064;2023-05-25T14:40:20;19.93;;;5.37;;
3274;SDS011;1649;53.672;10.064;2023-05-25T14:42:46;16.90;;;4.83;;
3274;SDS011;1649;53.672;10.064;2023-05-25T14:45:11;17.10;;;5.47;;
3274;SDS011;1649;53.672;10.064;2023-05-25T14:47:37;12.63;;;4.00;;
3274;SDS011;1649;53.672;10.064;2023-05-25T14:50:02;17.20;;;5.53;;
3274;SDS011;1649;53.672;10.064;2023-05-25T14:52:28;16.43;;;4.83;;
3274;SDS011;1649;53.672;10.064;2023-05-25T14:54:54;18.70;;;5.60;;
3274;SDS011;1649;53.672;10.064;2023-05-25T14:57:19;14.40;;;5.40;;
3274;SDS011;1649;53.672;10.064;2023-05-25T14:59:45;11.80;;;4.17;;
3274;SDS011;1649;53.672;10.064;2023-05-25T15:02:10;14.47;;;4.90;;
3274;SDS011;1649;53.672;10.064;2023-05-25T15:04:36;18.40;;;4.90;;
3274;SDS011;1649;53.672;10.064;2023-05-25T15:07:01;15.30;;;4.50;;